CheckWX is a tool to help pilots better visualize weather data.  It is not intended as a substitute for an official pre-flight weather briefing.

20:46:36 UTC

KJAC METAR
Jackson Hole Airport
Jackson, Wyoming, USA
Current

51 mins ago

KJAC 161956Z 21015G21KT 10SM BKN110 26/04 A3007 RMK AO2 SLP123 T02560044
Observed
Jul-16 @ 19:56 UTC
Wind
  • 210° at 15 KTS
  • Gusting to 21 KTS
Visibility
10 SM
Flight Rules
VFR
Cloud Levels
  • Broken at 11,000' AGL
Temperature
26°C / 79°F
Dewpoint
C / 39°F
Humidity
24%
Altimeter
30.07" Hg
Pressure
1018.32 hPa
Previous

2 hours ago

KJAC 161856Z 18007KT 150V230 10SM CLR 24/11 A3009 RMK AO2 SLP130 T02390111
Observed
Jul-16 @ 18:56 UTC
Wind
  • 180° at 7 KTS
Visibility
10 SM
Flight Rules
VFR
Cloud Levels
  • Clear skies
Temperature
24°C / 75°F
Dewpoint
11°C / 52°F
Humidity
44%
Altimeter
30.09" Hg
Pressure
1018.92 hPa
Previous

3 hours ago

KJAC 161756Z VRB03KT 10SM CLR 21/10 A3011 RMK AO2 SLP148 T02060100 10206 20061 58012
Observed
Jul-16 @ 17:56 UTC
Wind
  • Variable at 3 KTS
Visibility
10 SM
Flight Rules
VFR
Cloud Levels
  • Clear skies
Temperature
21°C / 70°F
Dewpoint
10°C / 50°F
Humidity
50%
Altimeter
30.11" Hg
Pressure
1019.62 hPa